METAR Data
IDs: Format: Raw Decoded Include TAF

Data at: 0047 UTC 20 Jul 2019

METAR for:EKRN (Ronne/Bornholm Arpt, --, DN)
Text:EKRN 200020Z AUTO 06002KT 6000 NCD 15/15 Q1014
Temperature: 15.0°C ( 59°F)
Dewpoint: 15.0°C ( 59°F) [RH = 100%]
Pressure (altimeter):29.94 inches Hg (1014.0 mb)
Winds:from the ENE (60 degrees) at 2 MPH (2 knots; 1.0 m/s)
Visibility: 4 sm ( 6 km)
Ceiling:at least 12,000 feet AGL
Clouds:sky clear below 12,000 feet AGL
Text:EKRN 192350Z AUTO 06001KT 9999 NCD 16/15 Q1014
Temperature: 16.0°C ( 61°F)
Dewpoint: 15.0°C ( 59°F) [RH = 94%]
Pressure (altimeter):29.94 inches Hg (1014.0 mb)
Winds:from the ENE (60 degrees) at 1 MPH (1 knots; 0.5 m/s)
Visibility:6 or more sm (10+ km)
Ceiling:at least 12,000 feet AGL
Clouds:sky clear below 12,000 feet AGL
Text:EKRN 192320Z AUTO 08002KT 9999 FEW070/// SCT120/// 17/16 Q1014
Temperature: 17.0°C ( 63°F)
Dewpoint: 16.0°C ( 61°F) [RH = 94%]
Pressure (altimeter):29.94 inches Hg (1014.0 mb)
Winds:from the E (80 degrees) at 2 MPH (2 knots; 1.0 m/s)
Visibility:6 or more sm (10+ km)
Ceiling:at least 12,000 feet AGL
Clouds: few clouds at 7000 feet AGL, scattered clouds at 12000 feet AGL
Text:EKRN 192250Z AUTO 07001KT 9999 FEW057/// BKN071/// OVC120/// 17/16 Q1014
Temperature: 17.0°C ( 63°F)
Dewpoint: 16.0°C ( 61°F) [RH = 94%]
Pressure (altimeter):29.94 inches Hg (1014.0 mb)
Winds:from the ENE (70 degrees) at 1 MPH (1 knots; 0.5 m/s)
Visibility:6 or more sm (10+ km)
Ceiling:7100 feet AGL
Clouds: few clouds at 5700 feet AGL, broken clouds at 7100 feet AGL, overcast cloud deck at 12000 feet AGL
Text:EKRN 192220Z AUTO 16002KT 9999 SCT095/// OVC120/// 17/16 Q1014
Temperature: 17.0°C ( 63°F)
Dewpoint: 16.0°C ( 61°F) [RH = 94%]
Pressure (altimeter):29.94 inches Hg (1014.0 mb)
Winds:from the SSE (160 degrees) at 2 MPH (2 knots; 1.0 m/s)
Visibility:6 or more sm (10+ km)
Ceiling:12000 feet AGL
Clouds: scattered clouds at 9500 feet AGL, overcast cloud deck at 12000 feet AGL
Text:EKRN 192150Z AUTO 17002KT 9999 FEW094/// OVC120/// 18/17 Q1014
Temperature: 18.0°C ( 64°F)
Dewpoint: 17.0°C ( 63°F) [RH = 94%]
Pressure (altimeter):29.94 inches Hg (1014.0 mb)
Winds:from the S (170 degrees) at 2 MPH (2 knots; 1.0 m/s)
Visibility:6 or more sm (10+ km)
Ceiling:12000 feet AGL
Clouds: few clouds at 9400 feet AGL, overcast cloud deck at 12000 feet AGL
Text:EKRN 192120Z AUTO 17003KT 9999 BKN066/// BKN092/// OVC120/// 18/17 Q1014
Temperature: 18.0°C ( 64°F)
Dewpoint: 17.0°C ( 63°F) [RH = 94%]
Pressure (altimeter):29.94 inches Hg (1014.0 mb)
Winds:from the S (170 degrees) at 3 MPH (3 knots; 1.5 m/s)
Visibility:6 or more sm (10+ km)
Ceiling:6600 feet AGL
Clouds: broken clouds at 6600 feet AGL, broken clouds at 9200 feet AGL, overcast cloud deck at 12000 feet AGL
Text:EKRN 192050Z AUTO 16002KT 9999 BKN066/// OVC120/// 18/16 Q1014
Temperature: 18.0°C ( 64°F)
Dewpoint: 16.0°C ( 61°F) [RH = 88%]
Pressure (altimeter):29.94 inches Hg (1014.0 mb)
Winds:from the SSE (160 degrees) at 2 MPH (2 knots; 1.0 m/s)
Visibility:6 or more sm (10+ km)
Ceiling:6600 feet AGL
Clouds: broken clouds at 6600 feet AGL, overcast cloud deck at 12000 feet AGL
Text:EKRN 192020Z AUTO 12003KT 9999 FEW072/// OVC120/// 17/15 Q1014
Temperature: 17.0°C ( 63°F)
Dewpoint: 15.0°C ( 59°F) [RH = 88%]
Pressure (altimeter):29.94 inches Hg (1014.0 mb)
Winds:from the ESE (120 degrees) at 3 MPH (3 knots; 1.5 m/s)
Visibility:6 or more sm (10+ km)
Ceiling:12000 feet AGL
Clouds: few clouds at 7200 feet AGL, overcast cloud deck at 12000 feet AGL
Text:EKRN 191950Z AUTO 12006KT 9999 SCT076/// OVC110/// 18/15 Q1014
Temperature: 18.0°C ( 64°F)
Dewpoint: 15.0°C ( 59°F) [RH = 83%]
Pressure (altimeter):29.94 inches Hg (1014.0 mb)
Winds:from the ESE (120 degrees) at 7 MPH (6 knots; 3.1 m/s)
Visibility:6 or more sm (10+ km)
Ceiling:11000 feet AGL
Clouds: scattered clouds at 7600 feet AGL, overcast cloud deck at 11000 feet AGL
Text:EKRN 191920Z AUTO 11005KT 9999 OVC100/// 18/15 Q1013
Temperature: 18.0°C ( 64°F)
Dewpoint: 15.0°C ( 59°F) [RH = 83%]
Pressure (altimeter):29.91 inches Hg (1013.0 mb)
Winds:from the ESE (110 degrees) at 6 MPH (5 knots; 2.6 m/s)
Visibility:6 or more sm (10+ km)
Ceiling:10000 feet AGL
Clouds: overcast cloud deck at 10000 feet AGL
Text:EKRN 191850Z AUTO 12003KT 9999 OVC100/// 19/14 Q1013
Temperature: 19.0°C ( 66°F)
Dewpoint: 14.0°C ( 57°F) [RH = 73%]
Pressure (altimeter):29.91 inches Hg (1013.0 mb)
Winds:from the ESE (120 degrees) at 3 MPH (3 knots; 1.5 m/s)
Visibility:6 or more sm (10+ km)
Ceiling:10000 feet AGL
Clouds: overcast cloud deck at 10000 feet AGL
Text:EKRN 191820Z AUTO 11006KT 9999 FEW099/// BKN110/// 19/14 Q1013
Temperature: 19.0°C ( 66°F)
Dewpoint: 14.0°C ( 57°F) [RH = 73%]
Pressure (altimeter):29.91 inches Hg (1013.0 mb)
Winds:from the ESE (110 degrees) at 7 MPH (6 knots; 3.1 m/s)
Visibility:6 or more sm (10+ km)
Ceiling:11000 feet AGL
Clouds: few clouds at 9900 feet AGL, broken clouds at 11000 feet AGL
Text:EKRN 191750Z AUTO 12008KT 9999 NCD 20/13 Q1013
Temperature: 20.0°C ( 68°F)
Dewpoint: 13.0°C ( 55°F) [RH = 64%]
Pressure (altimeter):29.91 inches Hg (1013.0 mb)
Winds:from the ESE (120 degrees) at 9 MPH (8 knots; 4.1 m/s)
Visibility:6 or more sm (10+ km)
Ceiling:at least 12,000 feet AGL
Clouds:sky clear below 12,000 feet AGL
Text:EKRN 191720Z AUTO 11008KT 9999 NCD 21/12 Q1013
Temperature: 21.0°C ( 70°F)
Dewpoint: 12.0°C ( 54°F) [RH = 56%]
Pressure (altimeter):29.91 inches Hg (1013.0 mb)
Winds:from the ESE (110 degrees) at 9 MPH (8 knots; 4.1 m/s)
Visibility:6 or more sm (10+ km)
Ceiling:at least 12,000 feet AGL
Clouds:sky clear below 12,000 feet AGL
Text:EKRN 191650Z AUTO 11008KT 9999 FEW083/// 22/11 Q1012
Temperature: 22.0°C ( 72°F)
Dewpoint: 11.0°C ( 52°F) [RH = 50%]
Pressure (altimeter):29.88 inches Hg (1012.0 mb)
Winds:from the ESE (110 degrees) at 9 MPH (8 knots; 4.1 m/s)
Visibility:6 or more sm (10+ km)
Ceiling:at least 12,000 feet AGL
Clouds: few clouds at 8300 feet AGL
Text:EKRN 191620Z AUTO 12007KT 9999 NCD 22/10 Q1012
Temperature: 22.0°C ( 72°F)
Dewpoint: 10.0°C ( 50°F) [RH = 46%]
Pressure (altimeter):29.88 inches Hg (1012.0 mb)
Winds:from the ESE (120 degrees) at 8 MPH (7 knots; 3.6 m/s)
Visibility:6 or more sm (10+ km)
Ceiling:at least 12,000 feet AGL
Clouds:sky clear below 12,000 feet AGL
Text:EKRN 191550Z AUTO 13009KT 9999 FEW081/// 22/13 Q1013
Temperature: 22.0°C ( 72°F)
Dewpoint: 13.0°C ( 55°F) [RH = 57%]
Pressure (altimeter):29.91 inches Hg (1013.0 mb)
Winds:from the SE (130 degrees) at 10 MPH (9 knots; 4.6 m/s)
Visibility:6 or more sm (10+ km)
Ceiling:at least 12,000 feet AGL
Clouds: few clouds at 8100 feet AGL
Text:EKRN 191520Z AUTO 12010KT 9999 NCD 22/13 Q1013
Temperature: 22.0°C ( 72°F)
Dewpoint: 13.0°C ( 55°F) [RH = 57%]
Pressure (altimeter):29.91 inches Hg (1013.0 mb)
Winds:from the ESE (120 degrees) at 12 MPH (10 knots; 5.1 m/s)
Visibility:6 or more sm (10+ km)
Ceiling:at least 12,000 feet AGL
Clouds:sky clear below 12,000 feet AGL
Text:EKRN 191450Z AUTO 13011KT 9999 NCD 22/11 Q1013
Temperature: 22.0°C ( 72°F)
Dewpoint: 11.0°C ( 52°F) [RH = 50%]
Pressure (altimeter):29.91 inches Hg (1013.0 mb)
Winds:from the SE (130 degrees) at 13 MPH (11 knots; 5.7 m/s)
Visibility:6 or more sm (10+ km)
Ceiling:at least 12,000 feet AGL
Clouds:sky clear below 12,000 feet AGL
Text:EKRN 191420Z AUTO 13009KT 9999 SCT220/// 22/13 Q1013
Temperature: 22.0°C ( 72°F)
Dewpoint: 13.0°C ( 55°F) [RH = 57%]
Pressure (altimeter):29.91 inches Hg (1013.0 mb)
Winds:from the SE (130 degrees) at 10 MPH (9 knots; 4.6 m/s)
Visibility:6 or more sm (10+ km)
Ceiling:at least 12,000 feet AGL
Clouds: scattered clouds at 22000 feet AGL
Text:EKRN 191350Z AUTO 13011KT 9999 NCD 22/13 Q1013
Temperature: 22.0°C ( 72°F)
Dewpoint: 13.0°C ( 55°F) [RH = 57%]
Pressure (altimeter):29.91 inches Hg (1013.0 mb)
Winds:from the SE (130 degrees) at 13 MPH (11 knots; 5.7 m/s)
Visibility:6 or more sm (10+ km)
Ceiling:at least 12,000 feet AGL
Clouds:sky clear below 12,000 feet AGL
Text:EKRN 191320Z AUTO 13011KT 9999 NCD 22/13 Q1013
Temperature: 22.0°C ( 72°F)
Dewpoint: 13.0°C ( 55°F) [RH = 57%]
Pressure (altimeter):29.91 inches Hg (1013.0 mb)
Winds:from the SE (130 degrees) at 13 MPH (11 knots; 5.7 m/s)
Visibility:6 or more sm (10+ km)
Ceiling:at least 12,000 feet AGL
Clouds:sky clear below 12,000 feet AGL
Text:EKRN 191250Z AUTO 13010KT 9999 FEW100/// 23/14 Q1013
Temperature: 23.0°C ( 73°F)
Dewpoint: 14.0°C ( 57°F) [RH = 57%]
Pressure (altimeter):29.91 inches Hg (1013.0 mb)
Winds:from the SE (130 degrees) at 12 MPH (10 knots; 5.1 m/s)
Visibility:6 or more sm (10+ km)
Ceiling:at least 12,000 feet AGL
Clouds: few clouds at 10000 feet AGL
Text:EKRN 191220Z AUTO 13010KT 9999 FEW100/// 22/13 Q1013
Temperature: 22.0°C ( 72°F)
Dewpoint: 13.0°C ( 55°F) [RH = 57%]
Pressure (altimeter):29.91 inches Hg (1013.0 mb)
Winds:from the SE (130 degrees) at 12 MPH (10 knots; 5.1 m/s)
Visibility:6 or more sm (10+ km)
Ceiling:at least 12,000 feet AGL
Clouds: few clouds at 10000 feet AGL
Text:EKRN 191150Z AUTO 13010KT 9999 NCD 22/13 Q1013
Temperature: 22.0°C ( 72°F)
Dewpoint: 13.0°C ( 55°F) [RH = 57%]
Pressure (altimeter):29.91 inches Hg (1013.0 mb)
Winds:from the SE (130 degrees) at 12 MPH (10 knots; 5.1 m/s)
Visibility:6 or more sm (10+ km)
Ceiling:at least 12,000 feet AGL
Clouds:sky clear below 12,000 feet AGL
Text:EKRN 191120Z AUTO 14009KT 9999 NCD 22/14 Q1013
Temperature: 22.0°C ( 72°F)
Dewpoint: 14.0°C ( 57°F) [RH = 60%]
Pressure (altimeter):29.91 inches Hg (1013.0 mb)
Winds:from the SE (140 degrees) at 10 MPH (9 knots; 4.6 m/s)
Visibility:6 or more sm (10+ km)
Ceiling:at least 12,000 feet AGL
Clouds:sky clear below 12,000 feet AGL
Text:EKRN 191050Z AUTO 14009KT 9999 NCD 21/14 Q1013
Temperature: 21.0°C ( 70°F)
Dewpoint: 14.0°C ( 57°F) [RH = 64%]
Pressure (altimeter):29.91 inches Hg (1013.0 mb)
Winds:from the SE (140 degrees) at 10 MPH (9 knots; 4.6 m/s)
Visibility:6 or more sm (10+ km)
Ceiling:at least 12,000 feet AGL
Clouds:sky clear below 12,000 feet AGL
Text:EKRN 191020Z AUTO 14009KT 9999 NCD 21/16 Q1013
Temperature: 21.0°C ( 70°F)
Dewpoint: 16.0°C ( 61°F) [RH = 73%]
Pressure (altimeter):29.91 inches Hg (1013.0 mb)
Winds:from the SE (140 degrees) at 10 MPH (9 knots; 4.6 m/s)
Visibility:6 or more sm (10+ km)
Ceiling:at least 12,000 feet AGL
Clouds:sky clear below 12,000 feet AGL
Text:EKRN 190950Z AUTO 13009KT 9999 FEW160/// 22/14 Q1013
Temperature: 22.0°C ( 72°F)
Dewpoint: 14.0°C ( 57°F) [RH = 60%]
Pressure (altimeter):29.91 inches Hg (1013.0 mb)
Winds:from the SE (130 degrees) at 10 MPH (9 knots; 4.6 m/s)
Visibility:6 or more sm (10+ km)
Ceiling:at least 12,000 feet AGL
Clouds: few clouds at 16000 feet AGL
Text:EKRN 190920Z AUTO 13009KT 9999 BKN160/// 22/16 Q1013
Temperature: 22.0°C ( 72°F)
Dewpoint: 16.0°C ( 61°F) [RH = 69%]
Pressure (altimeter):29.91 inches Hg (1013.0 mb)
Winds:from the SE (130 degrees) at 10 MPH (9 knots; 4.6 m/s)
Visibility:6 or more sm (10+ km)
Ceiling:16000 feet AGL
Clouds: broken clouds at 16000 feet AGL
Text:EKRN 190850Z AUTO 14010KT 9999 SCT160/// 20/16 Q1013
Temperature: 20.0°C ( 68°F)
Dewpoint: 16.0°C ( 61°F) [RH = 78%]
Pressure (altimeter):29.91 inches Hg (1013.0 mb)
Winds:from the SE (140 degrees) at 12 MPH (10 knots; 5.1 m/s)
Visibility:6 or more sm (10+ km)
Ceiling:at least 12,000 feet AGL
Clouds: scattered clouds at 16000 feet AGL
Text:EKRN 190820Z AUTO 13009KT 9999 SCT180/// 21/16 Q1013
Temperature: 21.0°C ( 70°F)
Dewpoint: 16.0°C ( 61°F) [RH = 73%]
Pressure (altimeter):29.91 inches Hg (1013.0 mb)
Winds:from the SE (130 degrees) at 10 MPH (9 knots; 4.6 m/s)
Visibility:6 or more sm (10+ km)
Ceiling:at least 12,000 feet AGL
Clouds: scattered clouds at 18000 feet AGL
Text:EKRN 190750Z AUTO 13008KT 9999 BKN180/// BKN220/// 20/16 Q1013
Temperature: 20.0°C ( 68°F)
Dewpoint: 16.0°C ( 61°F) [RH = 78%]
Pressure (altimeter):29.91 inches Hg (1013.0 mb)
Winds:from the SE (130 degrees) at 9 MPH (8 knots; 4.1 m/s)
Visibility:6 or more sm (10+ km)
Ceiling:18000 feet AGL
Clouds: broken clouds at 18000 feet AGL, broken clouds at 22000 feet AGL
Text:EKRN 190720Z AUTO 12007KT 9999 FEW130/// SCT170/// 19/15 Q1013
Temperature: 19.0°C ( 66°F)
Dewpoint: 15.0°C ( 59°F) [RH = 78%]
Pressure (altimeter):29.91 inches Hg (1013.0 mb)
Winds:from the ESE (120 degrees) at 8 MPH (7 knots; 3.6 m/s)
Visibility:6 or more sm (10+ km)
Ceiling:at least 12,000 feet AGL
Clouds: few clouds at 13000 feet AGL, scattered clouds at 17000 feet AGL
Text:EKRN 190650Z AUTO 15006KT 9999 BKN160/// 19/16 Q1013
Temperature: 19.0°C ( 66°F)
Dewpoint: 16.0°C ( 61°F) [RH = 83%]
Pressure (altimeter):29.91 inches Hg (1013.0 mb)
Winds:from the SSE (150 degrees) at 7 MPH (6 knots; 3.1 m/s)
Visibility:6 or more sm (10+ km)
Ceiling:16000 feet AGL
Clouds: broken clouds at 16000 feet AGL
Text:EKRN 190620Z AUTO 12004KT 090V150 9999 BKN160/// 19/15 Q1012
Temperature: 19.0°C ( 66°F)
Dewpoint: 15.0°C ( 59°F) [RH = 78%]
Pressure (altimeter):29.88 inches Hg (1012.0 mb)
Winds:from the ESE (120 degrees) at 5 MPH (4 knots; 2.1 m/s)
Visibility:6 or more sm (10+ km)
Ceiling:16000 feet AGL
Clouds: broken clouds at 16000 feet AGL
Text:EKRN 190550Z AUTO 12005KT 9999 SCT170/// BKN210/// 19/16 Q1012
Temperature: 19.0°C ( 66°F)
Dewpoint: 16.0°C ( 61°F) [RH = 83%]
Pressure (altimeter):29.88 inches Hg (1012.0 mb)
Winds:from the ESE (120 degrees) at 6 MPH (5 knots; 2.6 m/s)
Visibility:6 or more sm (10+ km)
Ceiling:21000 feet AGL
Clouds: scattered clouds at 17000 feet AGL, broken clouds at 21000 feet AGL
Text:EKRN 190520Z AUTO 09006KT 9999 BKN170/// 18/16 Q1012
Temperature: 18.0°C ( 64°F)
Dewpoint: 16.0°C ( 61°F) [RH = 88%]
Pressure (altimeter):29.88 inches Hg (1012.0 mb)
Winds:from the E (90 degrees) at 7 MPH (6 knots; 3.1 m/s)
Visibility:6 or more sm (10+ km)
Ceiling:17000 feet AGL
Clouds: broken clouds at 17000 feet AGL
Text:EKRN 190450Z AUTO 09005KT 9999 BKN180/// 17/16 Q1012
Temperature: 17.0°C ( 63°F)
Dewpoint: 16.0°C ( 61°F) [RH = 94%]
Pressure (altimeter):29.88 inches Hg (1012.0 mb)
Winds:from the E (90 degrees) at 6 MPH (5 knots; 2.6 m/s)
Visibility:6 or more sm (10+ km)
Ceiling:18000 feet AGL
Clouds: broken clouds at 18000 feet AGL
Text:EKRN 190420Z AUTO 09005KT 9999 BKN180/// 16/15 Q1012
Temperature: 16.0°C ( 61°F)
Dewpoint: 15.0°C ( 59°F) [RH = 94%]
Pressure (altimeter):29.88 inches Hg (1012.0 mb)
Winds:from the E (90 degrees) at 6 MPH (5 knots; 2.6 m/s)
Visibility:6 or more sm (10+ km)
Ceiling:18000 feet AGL
Clouds: broken clouds at 18000 feet AGL
Text:EKRN 190350Z AUTO 08005KT 9999 SCT200/// 15/14 Q1012
Temperature: 15.0°C ( 59°F)
Dewpoint: 14.0°C ( 57°F) [RH = 94%]
Pressure (altimeter):29.88 inches Hg (1012.0 mb)
Winds:from the E (80 degrees) at 6 MPH (5 knots; 2.6 m/s)
Visibility:6 or more sm (10+ km)
Ceiling:at least 12,000 feet AGL
Clouds: scattered clouds at 20000 feet AGL
Text:EKRN 190320Z AUTO 09005KT 9999 SCT220/// 15/13 Q1012
Temperature: 15.0°C ( 59°F)
Dewpoint: 13.0°C ( 55°F) [RH = 88%]
Pressure (altimeter):29.88 inches Hg (1012.0 mb)
Winds:from the E (90 degrees) at 6 MPH (5 knots; 2.6 m/s)
Visibility:6 or more sm (10+ km)
Ceiling:at least 12,000 feet AGL
Clouds: scattered clouds at 22000 feet AGL
Text:EKRN 190250Z AUTO 08005KT 9999 FEW220/// 14/13 Q1012
Temperature: 14.0°C ( 57°F)
Dewpoint: 13.0°C ( 55°F) [RH = 94%]
Pressure (altimeter):29.88 inches Hg (1012.0 mb)
Winds:from the E (80 degrees) at 6 MPH (5 knots; 2.6 m/s)
Visibility:6 or more sm (10+ km)
Ceiling:at least 12,000 feet AGL
Clouds: few clouds at 22000 feet AGL
Text:EKRN 190220Z AUTO 08005KT 9999 SCT220/// 14/13 Q1013
Temperature: 14.0°C ( 57°F)
Dewpoint: 13.0°C ( 55°F) [RH = 94%]
Pressure (altimeter):29.91 inches Hg (1013.0 mb)
Winds:from the E (80 degrees) at 6 MPH (5 knots; 2.6 m/s)
Visibility:6 or more sm (10+ km)
Ceiling:at least 12,000 feet AGL
Clouds: scattered clouds at 22000 feet AGL
Text:EKRN 190150Z AUTO 08005KT 9999 SCT230/// 14/13 Q1013
Temperature: 14.0°C ( 57°F)
Dewpoint: 13.0°C ( 55°F) [RH = 94%]
Pressure (altimeter):29.91 inches Hg (1013.0 mb)
Winds:from the E (80 degrees) at 6 MPH (5 knots; 2.6 m/s)
Visibility:6 or more sm (10+ km)
Ceiling:at least 12,000 feet AGL
Clouds: scattered clouds at 23000 feet AGL
Text:EKRN 190120Z AUTO 07004KT 9999 BKN220/// 14/13 Q1013
Temperature: 14.0°C ( 57°F)
Dewpoint: 13.0°C ( 55°F) [RH = 94%]
Pressure (altimeter):29.91 inches Hg (1013.0 mb)
Winds:from the ENE (70 degrees) at 5 MPH (4 knots; 2.1 m/s)
Visibility:6 or more sm (10+ km)
Ceiling:22000 feet AGL
Clouds: broken clouds at 22000 feet AGL
Text:EKRN 190050Z AUTO 08004KT 9999 NCD 14/13 Q1013
Temperature: 14.0°C ( 57°F)
Dewpoint: 13.0°C ( 55°F) [RH = 94%]
Pressure (altimeter):29.91 inches Hg (1013.0 mb)
Winds:from the E (80 degrees) at 5 MPH (4 knots; 2.1 m/s)
Visibility:6 or more sm (10+ km)
Ceiling:at least 12,000 feet AGL
Clouds:sky clear below 12,000 feet AGL
Text:EKRN 190020Z AUTO 07004KT 9999 NCD 14/13 Q1013
Temperature: 14.0°C ( 57°F)
Dewpoint: 13.0°C ( 55°F) [RH = 94%]
Pressure (altimeter):29.91 inches Hg (1013.0 mb)
Winds:from the ENE (70 degrees) at 5 MPH (4 knots; 2.1 m/s)
Visibility:6 or more sm (10+ km)
Ceiling:at least 12,000 feet AGL
Clouds:sky clear below 12,000 feet AGL
Text:EKRN 182350Z AUTO 08003KT 9999 NCD 14/12 Q1013
Temperature: 14.0°C ( 57°F)
Dewpoint: 12.0°C ( 54°F) [RH = 88%]
Pressure (altimeter):29.91 inches Hg (1013.0 mb)
Winds:from the E (80 degrees) at 3 MPH (3 knots; 1.5 m/s)
Visibility:6 or more sm (10+ km)
Ceiling:at least 12,000 feet AGL
Clouds:sky clear below 12,000 feet AGL
Text:EKRN 182320Z AUTO 08004KT 9999 NCD 14/12 Q1013
Temperature: 14.0°C ( 57°F)
Dewpoint: 12.0°C ( 54°F) [RH = 88%]
Pressure (altimeter):29.91 inches Hg (1013.0 mb)
Winds:from the E (80 degrees) at 5 MPH (4 knots; 2.1 m/s)
Visibility:6 or more sm (10+ km)
Ceiling:at least 12,000 feet AGL
Clouds:sky clear below 12,000 feet AGL
Text:EKRN 182250Z AUTO 07003KT 9999 NCD 14/12 Q1013
Temperature: 14.0°C ( 57°F)
Dewpoint: 12.0°C ( 54°F) [RH = 88%]
Pressure (altimeter):29.91 inches Hg (1013.0 mb)
Winds:from the ENE (70 degrees) at 3 MPH (3 knots; 1.5 m/s)
Visibility:6 or more sm (10+ km)
Ceiling:at least 12,000 feet AGL
Clouds:sky clear below 12,000 feet AGL
Text:EKRN 182220Z AUTO 08003KT 9999 NCD 13/11 Q1013
Temperature: 13.0°C ( 55°F)
Dewpoint: 11.0°C ( 52°F) [RH = 88%]
Pressure (altimeter):29.91 inches Hg (1013.0 mb)
Winds:from the E (80 degrees) at 3 MPH (3 knots; 1.5 m/s)
Visibility:6 or more sm (10+ km)
Ceiling:at least 12,000 feet AGL
Clouds:sky clear below 12,000 feet AGL
Text:EKRN 182150Z AUTO 06003KT 9999 NCD 13/11 Q1013
Temperature: 13.0°C ( 55°F)
Dewpoint: 11.0°C ( 52°F) [RH = 88%]
Pressure (altimeter):29.91 inches Hg (1013.0 mb)
Winds:from the ENE (60 degrees) at 3 MPH (3 knots; 1.5 m/s)
Visibility:6 or more sm (10+ km)
Ceiling:at least 12,000 feet AGL
Clouds:sky clear below 12,000 feet AGL
Text:EKRN 182120Z AUTO 07003KT 9999 NCD 13/11 Q1013
Temperature: 13.0°C ( 55°F)
Dewpoint: 11.0°C ( 52°F) [RH = 88%]
Pressure (altimeter):29.91 inches Hg (1013.0 mb)
Winds:from the ENE (70 degrees) at 3 MPH (3 knots; 1.5 m/s)
Visibility:6 or more sm (10+ km)
Ceiling:at least 12,000 feet AGL
Clouds:sky clear below 12,000 feet AGL
Text:EKRN 182050Z AUTO 08003KT 9999 NCD 12/11 Q1013
Temperature: 12.0°C ( 54°F)
Dewpoint: 11.0°C ( 52°F) [RH = 94%]
Pressure (altimeter):29.91 inches Hg (1013.0 mb)
Winds:from the E (80 degrees) at 3 MPH (3 knots; 1.5 m/s)
Visibility:6 or more sm (10+ km)
Ceiling:at least 12,000 feet AGL
Clouds:sky clear below 12,000 feet AGL
Text:EKRN 182020Z AUTO 08003KT 9999 NCD 13/12 Q1013
Temperature: 13.0°C ( 55°F)
Dewpoint: 12.0°C ( 54°F) [RH = 94%]
Pressure (altimeter):29.91 inches Hg (1013.0 mb)
Winds:from the E (80 degrees) at 3 MPH (3 knots; 1.5 m/s)
Visibility:6 or more sm (10+ km)
Ceiling:at least 12,000 feet AGL
Clouds:sky clear below 12,000 feet AGL
Text:EKRN 181950Z AUTO 05003KT 9999 NCD 15/13 Q1013
Temperature: 15.0°C ( 59°F)
Dewpoint: 13.0°C ( 55°F) [RH = 88%]
Pressure (altimeter):29.91 inches Hg (1013.0 mb)
Winds:from the NE (50 degrees) at 3 MPH (3 knots; 1.5 m/s)
Visibility:6 or more sm (10+ km)
Ceiling:at least 12,000 feet AGL
Clouds:sky clear below 12,000 feet AGL
Text:EKRN 181920Z AUTO 06002KT 9999 NCD 16/14 Q1013
Temperature: 16.0°C ( 61°F)
Dewpoint: 14.0°C ( 57°F) [RH = 88%]
Pressure (altimeter):29.91 inches Hg (1013.0 mb)
Winds:from the ENE (60 degrees) at 2 MPH (2 knots; 1.0 m/s)
Visibility:6 or more sm (10+ km)
Ceiling:at least 12,000 feet AGL
Clouds:sky clear below 12,000 feet AGL
Text:EKRN 181850Z AUTO 13001KT 9999 NCD 17/15 Q1013
Temperature: 17.0°C ( 63°F)
Dewpoint: 15.0°C ( 59°F) [RH = 88%]
Pressure (altimeter):29.91 inches Hg (1013.0 mb)
Winds:from the SE (130 degrees) at 1 MPH (1 knots; 0.5 m/s)
Visibility:6 or more sm (10+ km)
Ceiling:at least 12,000 feet AGL
Clouds:sky clear below 12,000 feet AGL
Text:EKRN 181820Z AUTO 15002KT 9999 NCD 18/15 Q1013
Temperature: 18.0°C ( 64°F)
Dewpoint: 15.0°C ( 59°F) [RH = 83%]
Pressure (altimeter):29.91 inches Hg (1013.0 mb)
Winds:from the SSE (150 degrees) at 2 MPH (2 knots; 1.0 m/s)
Visibility:6 or more sm (10+ km)
Ceiling:at least 12,000 feet AGL
Clouds:sky clear below 12,000 feet AGL
Text:EKRN 181750Z AUTO 17002KT 9999 NCD 19/15 Q1013
Temperature: 19.0°C ( 66°F)
Dewpoint: 15.0°C ( 59°F) [RH = 78%]
Pressure (altimeter):29.91 inches Hg (1013.0 mb)
Winds:from the S (170 degrees) at 2 MPH (2 knots; 1.0 m/s)
Visibility:6 or more sm (10+ km)
Ceiling:at least 12,000 feet AGL
Clouds:sky clear below 12,000 feet AGL
Text:EKRN 181720Z AUTO 18002KT 9999 NCD 19/15 Q1013
Temperature: 19.0°C ( 66°F)
Dewpoint: 15.0°C ( 59°F) [RH = 78%]
Pressure (altimeter):29.91 inches Hg (1013.0 mb)
Winds:from the S (180 degrees) at 2 MPH (2 knots; 1.0 m/s)
Visibility:6 or more sm (10+ km)
Ceiling:at least 12,000 feet AGL
Clouds:sky clear below 12,000 feet AGL
Text:EKRN 181650Z AUTO 18002KT 9999 NCD 19/15 Q1013
Temperature: 19.0°C ( 66°F)
Dewpoint: 15.0°C ( 59°F) [RH = 78%]
Pressure (altimeter):29.91 inches Hg (1013.0 mb)
Winds:from the S (180 degrees) at 2 MPH (2 knots; 1.0 m/s)
Visibility:6 or more sm (10+ km)
Ceiling:at least 12,000 feet AGL
Clouds:sky clear below 12,000 feet AGL
Text:EKRN 181620Z AUTO 20003KT 9999 NCD 19/16 Q1013
Temperature: 19.0°C ( 66°F)
Dewpoint: 16.0°C ( 61°F) [RH = 83%]
Pressure (altimeter):29.91 inches Hg (1013.0 mb)
Winds:from the SSW (200 degrees) at 3 MPH (3 knots; 1.5 m/s)
Visibility:6 or more sm (10+ km)
Ceiling:at least 12,000 feet AGL
Clouds:sky clear below 12,000 feet AGL
Text:EKRN 181550Z AUTO 20003KT 9999 NCD 20/16 Q1013
Temperature: 20.0°C ( 68°F)
Dewpoint: 16.0°C ( 61°F) [RH = 78%]
Pressure (altimeter):29.91 inches Hg (1013.0 mb)
Winds:from the SSW (200 degrees) at 3 MPH (3 knots; 1.5 m/s)
Visibility:6 or more sm (10+ km)
Ceiling:at least 12,000 feet AGL
Clouds:sky clear below 12,000 feet AGL
Text:EKRN 181520Z AUTO 20004KT 170V230 9999 NCD 20/16 Q1013
Temperature: 20.0°C ( 68°F)
Dewpoint: 16.0°C ( 61°F) [RH = 78%]
Pressure (altimeter):29.91 inches Hg (1013.0 mb)
Winds:from the SSW (200 degrees) at 5 MPH (4 knots; 2.1 m/s)
Visibility:6 or more sm (10+ km)
Ceiling:at least 12,000 feet AGL
Clouds:sky clear below 12,000 feet AGL
Text:EKRN 181450Z AUTO 21004KT 190V250 9999 NCD 20/16 Q1013
Temperature: 20.0°C ( 68°F)
Dewpoint: 16.0°C ( 61°F) [RH = 78%]
Pressure (altimeter):29.91 inches Hg (1013.0 mb)
Winds:from the SSW (210 degrees) at 5 MPH (4 knots; 2.1 m/s)
Visibility:6 or more sm (10+ km)
Ceiling:at least 12,000 feet AGL
Clouds:sky clear below 12,000 feet AGL
Text:EKRN 181420Z AUTO 22004KT 190V250 9999 NCD 20/16 Q1013
Temperature: 20.0°C ( 68°F)
Dewpoint: 16.0°C ( 61°F) [RH = 78%]
Pressure (altimeter):29.91 inches Hg (1013.0 mb)
Winds:from the SW (220 degrees) at 5 MPH (4 knots; 2.1 m/s)
Visibility:6 or more sm (10+ km)
Ceiling:at least 12,000 feet AGL
Clouds:sky clear below 12,000 feet AGL
Text:EKRN 181350Z AUTO 22005KT 190V250 9999 NCD 20/17 Q1013
Temperature: 20.0°C ( 68°F)
Dewpoint: 17.0°C ( 63°F) [RH = 83%]
Pressure (altimeter):29.91 inches Hg (1013.0 mb)
Winds:from the SW (220 degrees) at 6 MPH (5 knots; 2.6 m/s)
Visibility:6 or more sm (10+ km)
Ceiling:at least 12,000 feet AGL
Clouds:sky clear below 12,000 feet AGL
Text:EKRN 181320Z AUTO 22006KT 200V260 9999 NCD 20/16 Q1013
Temperature: 20.0°C ( 68°F)
Dewpoint: 16.0°C ( 61°F) [RH = 78%]
Pressure (altimeter):29.91 inches Hg (1013.0 mb)
Winds:from the SW (220 degrees) at 7 MPH (6 knots; 3.1 m/s)
Visibility:6 or more sm (10+ km)
Ceiling:at least 12,000 feet AGL
Clouds:sky clear below 12,000 feet AGL
Text:EKRN 181250Z AUTO 24005KT 210V270 9999 NCD 20/16 Q1014
Temperature: 20.0°C ( 68°F)
Dewpoint: 16.0°C ( 61°F) [RH = 78%]
Pressure (altimeter):29.94 inches Hg (1014.0 mb)
Winds:from the WSW (240 degrees) at 6 MPH (5 knots; 2.6 m/s)
Visibility:6 or more sm (10+ km)
Ceiling:at least 12,000 feet AGL
Clouds:sky clear below 12,000 feet AGL

TAF for:EKRN (Ronne/Bornholm Arpt, --, DN) issued at 1703 UTC 19 Jul 2019
Text:TAF EKRN 191703Z 1918/1922 12010KT CAVOK
Forecast period:1800 to 2200 UTC 19 July 2019
Forecast type:FROM: standard forecast or significant change
Winds:from the ESE (120 degrees) at 12 MPH (10 knots; 5.1 m/s)
Visibility:6 or more sm (10+ km)
Clouds:missing
Weather:NSW (no significant weather)